Time;durP1;ratioP1;P1;durP2;ratioP2;P2;SDS_P1;SDS_P2;PMS_P1;PMS_P2;Temp;Humidity;BMP_temperature;BMP_pressure;BME280_temperature;BME280_humidity;BME280_pressure;Samples;Min_cycle;Max_cycle;Signal;HPM_P1;HPM_P2
2022/04/01 00:01:37;;;;;;;21.40;9.48;;;6.20;99.90;;;;;;5006296;28;20087;-70
2022/04/01 00:04:04;;;;;;;;;;;6.10;99.90;;;;;;5007847;28;20048;-70
2022/04/01 00:06:32;;;;;;;23.15;8.65;;;6.10;99.90;;;;;;5005839;28;19925;-69
2022/04/01 00:09:00;;;;;;;19.40;8.27;;;6.00;99.90;;;;;;5006497;28;20095;-70
2022/04/01 00:11:27;;;;;;;15.10;7.72;;;5.90;99.90;;;;;;5008693;28;20048;-69
2022/04/01 00:13:55;;;;;;;18.15;7.82;;;5.90;99.90;;;;;;5006585;28;20567;-69
2022/04/01 00:16:23;;;;;;;16.83;7.90;;;5.80;99.90;;;;;;5008179;28;20044;-69
2022/04/01 00:18:50;;;;;;;16.05;7.10;;;5.80;99.90;;;;;;5006148;28;20328;-69
2022/04/01 00:21:17;;;;;;;16.33;7.55;;;5.80;99.90;;;;;;5008202;28;20121;-69
2022/04/01 00:23:45;;;;;;;14.45;6.75;;;5.80;99.90;;;;;;5006747;28;20030;-69
2022/04/01 00:26:16;;;;;;;16.65;7.30;;;5.70;99.90;;;;;;5008412;28;20026;-70
2022/04/01 00:28:44;;;;;;;14.52;6.50;;;5.70;99.90;;;;;;5005347;28;20030;-69
2022/04/01 00:31:13;;;;;;;13.55;6.00;;;5.70;99.90;;;;;;5007529;28;20057;-69
2022/04/01 00:33:44;;;;;;;11.15;5.13;;;5.60;99.90;;;;;;5008103;28;20496;-69
2022/04/01 00:36:16;;;;;;;10.57;4.95;;;5.50;99.90;;;;;;5005352;28;20502;-70
2022/04/01 00:38:44;;;;;;;11.43;4.97;;;5.40;99.90;;;;;;5005526;28;20089;-70
2022/04/01 00:41:13;;;;;;;9.00;4.68;;;5.30;99.90;;;;;;5003726;28;20557;-70
2022/04/01 00:43:41;;;;;;;9.35;4.40;;;5.30;99.90;;;;;;5005996;28;20041;-70
2022/04/01 00:46:09;;;;;;;9.45;4.45;;;5.30;99.90;;;;;;5006428;28;20117;-69
2022/04/01 00:48:36;;;;;;;10.30;4.68;;;5.20;99.90;;;;;;5030548;28;20057;-69
2022/04/01 00:51:05;;;;;;;10.38;4.50;;;5.10;99.90;;;;;;5005783;28;20032;-70
2022/04/01 00:53:35;;;;;;;9.38;3.97;;;5.20;99.90;;;;;;5007187;28;20069;-70
2022/04/01 00:56:07;;;;;;;11.40;5.00;;;5.20;99.90;;;;;;5005960;28;20034;-69
2022/04/01 00:58:36;;;;;;;13.43;5.63;;;5.10;99.90;;;;;;5004435;28;20030;-70
2022/04/01 01:01:04;;;;;;;12.88;5.05;;;5.00;99.90;;;;;;5006496;28;20095;-69
2022/04/01 01:03:34;;;;;;;13.25;5.18;;;4.90;99.90;;;;;;5006190;28;20088;-69
2022/04/01 01:06:02;;;;;;;11.20;5.23;;;4.90;99.90;;;;;;5005204;28;20673;-69
2022/04/01 01:08:32;;;;;;;13.57;5.45;;;4.80;99.90;;;;;;5006071;28;20026;-70
2022/04/01 01:11:01;;;;;;;11.33;5.23;;;4.60;99.90;;;;;;5005969;28;20091;-70
2022/04/01 01:13:32;;;;;;;12.77;5.57;;;4.60;99.90;;;;;;5005413;28;20062;-69
2022/04/01 01:16:02;;;;;;;;;;;4.50;99.90;;;;;;5004832;28;20109;-69
2022/04/01 01:18:29;;;;;;;14.25;5.93;;;4.50;99.90;;;;;;5006317;28;19984;-68
2022/04/01 01:20:56;;;;;;;13.65;5.95;;;4.50;99.90;;;;;;5004484;28;20072;-69
2022/04/01 01:23:32;;;;;;;12.68;6.05;;;4.30;99.90;;;;;;5005428;28;20120;-69
2022/04/01 01:26:00;;;;;;;14.90;6.07;;;4.20;99.90;;;;;;5004760;28;20034;-68
2022/04/01 01:28:28;;;;;;;13.73;5.80;;;4.10;99.90;;;;;;5004619;28;20978;-70
2022/04/01 01:30:57;;;;;;;13.50;5.70;;;4.10;99.90;;;;;;5004807;28;20018;-70
2022/04/01 01:33:26;;;;;;;12.98;5.60;;;4.10;99.90;;;;;;5004351;28;20042;-69
2022/04/01 01:35:57;;;;;;;11.82;5.53;;;4.00;99.90;;;;;;5004253;28;20225;-68
2022/04/01 01:38:24;;;;;;;12.48;5.20;;;3.90;99.90;;;;;;5005714;28;20089;-69
2022/04/01 01:40:53;;;;;;;10.23;4.90;;;3.90;99.90;;;;;;5003639;28;20038;-69
2022/04/01 01:43:22;;;;;;;8.65;4.10;;;3.70;99.90;;;;;;5007570;28;20029;-69
2022/04/01 01:45:49;;;;;;;10.25;4.95;;;3.60;99.90;;;;;;5004984;28;20235;-70
2022/04/01 01:48:18;;;;;;;12.63;4.70;;;3.50;99.90;;;;;;5003278;28;20033;-70
2022/04/01 01:56:23;;;;;;;8.93;4.13;;;3.20;99.90;;;;;;5006344;28;20793;-68
2022/04/01 01:58:56;;;;;;;9.52;4.63;;;3.10;99.90;;;;;;5003994;28;20030;-69
2022/04/01 02:01:27;;;;;;;11.00;4.78;;;2.90;99.90;;;;;;5003042;28;20074;-69
2022/04/01 02:03:56;;;;;;;10.30;4.55;;;2.80;99.90;;;;;;5006402;28;20065;-69
2022/04/01 02:06:25;;;;;;;10.15;4.75;;;2.70;99.90;;;;;;5010566;28;20065;-70
2022/04/01 02:08:54;;;;;;;9.07;4.30;;;2.60;99.90;;;;;;5007457;28;20121;-69
2022/04/01 02:11:24;;;;;;;11.90;4.78;;;2.50;99.90;;;;;;5009259;28;20026;-69
2022/04/01 02:13:51;;;;;;;;;;;2.50;99.90;;;;;;5009026;28;20025;-68
2022/04/01 02:16:29;;;;;;;12.18;4.95;;;2.40;99.90;;;;;;5010548;28;19949;-70
2022/04/01 02:19:00;;;;;;;10.05;4.25;;;2.40;99.90;;;;;;5006606;28;20022;-69
2022/04/01 02:21:29;;;;;;;11.95;5.18;;;2.30;99.90;;;;;;5033192;28;20076;-68
2022/04/01 02:24:00;;;;;;;13.48;5.20;;;2.10;99.90;;;;;;5006467;28;20670;-69
2022/04/01 02:26:27;;;;;;;14.63;5.30;;;2.00;99.90;;;;;;5009834;28;20037;-68
2022/04/01 02:28:59;;;;;;;15.77;5.22;;;2.00;99.90;;;;;;5008414;28;20034;-68
2022/04/01 02:31:31;;;;;;;13.10;5.65;;;1.90;99.90;;;;;;5008800;28;21585;-69
2022/04/01 02:33:59;;;;;;;11.95;4.90;;;1.90;99.90;;;;;;5007436;28;20022;-69
2022/04/01 02:36:27;;;;;;;13.88;5.45;;;1.80;99.90;;;;;;5008731;28;20026;-69
2022/04/01 02:38:59;;;;;;;12.57;5.10;;;1.80;99.90;;;;;;5008386;28;20041;-69
2022/04/01 02:41:29;;;;;;;13.43;5.60;;;1.80;99.90;;;;;;5008306;28;20034;-70
2022/04/01 02:44:18;;;;;;;14.30;5.55;;;1.70;99.90;;;;;;5006358;28;20145;-69
2022/04/01 02:46:46;;;;;;;15.18;5.70;;;1.70;99.90;;;;;;5005662;28;20034;-71
2022/04/01 02:49:17;;;;;;;13.25;5.38;;;1.70;99.90;;;;;;5008981;28;20112;-70
2022/04/01 02:51:46;;;;;;;15.27;6.57;;;1.60;99.90;;;;;;5006279;28;20492;-69
2022/04/01 02:54:15;;;;;;;13.02;5.13;;;1.60;99.90;;;;;;5009889;28;20048;-69
2022/04/01 02:56:43;;;;;;;13.15;5.32;;;1.60;99.90;;;;;;5008018;28;20068;-70
2022/04/01 02:59:11;;;;;;;13.65;5.93;;;1.60;99.90;;;;;;5007756;28;20038;-70
2022/04/01 03:01:42;;;;;;;12.77;5.82;;;1.70;99.90;;;;;;5009055;28;20018;-69
2022/04/01 03:04:13;;;;;;;14.07;5.80;;;1.70;99.90;;;;;;5011314;28;20035;-70
2022/04/01 03:06:44;;;;;;;12.52;5.45;;;1.70;99.90;;;;;;5002686;28;20050;-70
2022/04/01 03:09:13;;;;;;;13.13;5.03;;;1.70;99.90;;;;;;5008218;28;20022;-70
2022/04/01 03:11:42;;;;;;;13.93;5.38;;;1.60;99.90;;;;;;5007878;28;20034;-71
2022/04/01 03:14:09;;;;;;;15.52;5.75;;;1.70;99.90;;;;;;5007573;28;20513;-70
2022/04/01 03:16:37;;;;;;;14.73;5.65;;;1.70;99.90;;;;;;5010174;28;20374;-70
2022/04/01 03:19:04;;;;;;;12.70;5.65;;;1.60;99.90;;;;;;5010476;28;20172;-70
2022/04/01 03:21:30;;;;;;;14.25;5.15;;;1.60;99.90;;;;;;5006909;28;20109;-70
2022/04/01 03:23:56;;;;;;;12.10;5.60;;;1.60;99.90;;;;;;5006536;28;20187;-70
2022/04/01 03:26:22;;;;;;;12.18;5.38;;;1.60;99.90;;;;;;5012287;28;20033;-70
2022/04/01 03:28:48;;;;;;;12.52;5.45;;;1.60;99.90;;;;;;5015646;28;20040;-69
2022/04/01 03:31:14;;;;;;;12.90;5.13;;;1.70;99.90;;;;;;5001823;28;20073;-71
2022/04/01 03:33:44;;;;;;;12.05;5.22;;;1.60;99.90;;;;;;5007003;28;20054;-70
2022/04/01 03:36:11;;;;;;;11.13;5.37;;;1.60;99.90;;;;;;5004945;28;20030;-70
2022/04/01 03:38:39;;;;;;;13.60;5.43;;;1.60;99.90;;;;;;5005447;28;20030;-70
2022/04/01 03:41:05;;;;;;;13.20;5.88;;;1.60;99.90;;;;;;5005140;28;20030;-70
2022/04/01 03:43:34;;;;;;;13.88;5.65;;;1.60;99.90;;;;;;5008768;28;20037;-70
2022/04/01 03:46:13;;;;;;;10.65;4.72;;;1.60;99.90;;;;;;4998684;28;20033;-70
2022/04/01 03:48:48;;;;;;;11.73;5.18;;;1.60;99.90;;;;;;5003798;28;20088;-70
2022/04/01 03:51:24;;;;;;;12.63;5.15;;;1.60;99.90;;;;;;5006867;28;20028;-69
2022/04/01 03:53:57;;;;;;;11.98;5.43;;;1.60;99.90;;;;;;5006296;28;20030;-71
2022/04/01 03:56:30;;;;;;;11.98;4.97;;;1.60;99.90;;;;;;5011637;28;20041;-68
2022/04/01 03:59:09;;;;;;;12.02;5.30;;;1.60;99.90;;;;;;4995615;28;20061;-73
2022/04/01 04:01:36;;;;;;;12.00;5.32;;;1.60;99.90;;;;;;5008009;28;20080;-72
2022/04/01 04:04:03;;;;;;;12.25;5.45;;;1.60;99.90;;;;;;5008328;28;20308;-73
2022/04/01 04:06:28;;;;;;;13.10;6.03;;;1.60;99.90;;;;;;5010017;28;20061;-74
2022/04/01 04:09:01;;;;;;;11.45;4.53;;;1.60;99.90;;;;;;5005984;28;20030;-72
2022/04/01 04:11:29;;;;;;;12.25;5.10;;;1.50;99.90;;;;;;5013260;28;20046;-72
2022/04/01 04:13:56;;;;;;;11.32;4.97;;;1.50;99.90;;;;;;5009275;28;20428;-72
2022/04/01 04:16:31;;;;;;;12.70;4.90;;;1.50;99.90;;;;;;5010476;28;20029;-72
2022/04/01 04:19:16;;;;;;;13.10;4.25;;;1.50;99.90;;;;;;5005581;28;20068;-73
2022/04/01 04:21:58;;;;;;;10.43;4.10;;;1.50;99.90;;;;;;5011150;28;20064;-74
2022/04/01 04:24:30;;;;;;;10.57;4.45;;;1.50;99.90;;;;;;5004531;28;20658;-72
2022/04/01 04:27:12;;;;;;;9.50;4.10;;;1.50;99.90;;;;;;5005509;28;20030;-72
2022/04/01 04:29:48;;;;;;;11.82;4.70;;;1.60;99.90;;;;;;5000963;28;20026;-73
2022/04/01 04:32:34;;;;;;;9.23;4.45;;;1.60;99.90;;;;;;5005362;28;20129;-72
2022/04/01 04:35:07;;;;;;;11.75;4.38;;;1.60;99.90;;;;;;5006857;28;20045;-73
2022/04/01 04:37:36;;;;;;;10.50;4.22;;;1.60;99.90;;;;;;5003007;28;20050;-73
2022/04/01 04:40:03;;;;;;;10.90;4.60;;;1.50;99.90;;;;;;5005992;28;20108;-73
2022/04/01 04:42:32;;;;;;;16.13;6.63;;;1.50;99.90;;;;;;5010928;28;20369;-74
2022/04/01 04:44:58;;;;;;;13.20;6.18;;;1.50;99.90;;;;;;5006482;28;20031;-76
2022/04/01 04:47:25;;;;;;;12.13;5.93;;;1.50;99.90;;;;;;5008249;28;20036;-77
2022/04/01 04:49:53;;;;;;;12.88;5.57;;;1.50;99.90;;;;;;5006769;28;20065;-72
2022/04/01 04:52:20;;;;;;;10.52;4.65;;;1.50;99.90;;;;;;5007352;28;20049;-73
2022/04/01 04:54:47;;;;;;;11.15;5.00;;;1.50;99.90;;;;;;5007521;28;20025;-72
2022/04/01 04:57:15;;;;;;;10.73;4.63;;;1.60;99.90;;;;;;5008387;28;20048;-74
2022/04/01 04:59:42;;;;;;;10.55;4.80;;;1.50;99.90;;;;;;5007593;28;20104;-72
2022/04/01 05:02:16;;;;;;;10.10;4.70;;;1.50;99.90;;;;;;5007206;28;20037;-74
2022/04/01 05:04:51;;;;;;;11.25;4.80;;;1.50;99.90;;;;;;5007633;28;20753;-73
2022/04/01 05:07:30;;;;;;;11.95;4.40;;;1.50;99.90;;;;;;5010927;28;20062;-74
2022/04/01 05:10:01;;;;;;;11.40;4.78;;;1.50;99.90;;;;;;5003837;28;20034;-77
2022/04/01 05:12:56;;;;;;;10.32;4.40;;;1.50;99.90;;;;;;5007073;28;20785;-76
2022/04/01 05:15:36;;;;;;;11.98;4.47;;;1.50;99.90;;;;;;5007537;28;20062;-73
2022/04/01 05:18:16;;;;;;;10.35;3.97;;;1.60;99.90;;;;;;5005576;28;20053;-73
2022/04/01 05:21:00;;;;;;;13.10;5.35;;;1.60;99.90;;;;;;5006894;28;20034;-73
2022/04/01 05:23:34;;;;;;;13.20;5.25;;;1.50;99.90;;;;;;5008521;28;20029;-75
2022/04/01 05:26:12;;;;;;;10.73;4.78;;;1.50;99.90;;;;;;5034855;28;20022;-75
2022/04/01 05:28:52;;;;;;;8.88;4.32;;;1.60;99.90;;;;;;5008024;28;20105;-72
2022/04/01 05:31:34;;;;;;;10.23;4.38;;;1.60;99.90;;;;;;5005431;28;20161;-73
2022/04/01 05:34:15;;;;;;;9.57;4.15;;;1.60;99.90;;;;;;5010120;28;20034;-73
2022/04/01 05:36:42;;;;;;;10.68;4.35;;;1.60;99.90;;;;;;5006642;28;20091;-77
2022/04/01 05:39:10;;;;;;;10.85;4.72;;;1.60;99.90;;;;;;5009254;28;20630;-77
2022/04/01 05:41:36;;;;;;;10.35;4.13;;;1.60;99.90;;;;;;5009737;28;20033;-77
2022/04/01 05:44:03;;;;;;;8.77;4.05;;;1.60;99.90;;;;;;5014037;28;20108;-71
2022/04/01 05:46:30;;;;;;;10.60;4.60;;;1.60;99.90;;;;;;5023603;28;20384;-72
2022/04/01 05:48:58;;;;;;;8.10;4.15;;;1.60;99.90;;;;;;5006005;28;20034;-72
2022/04/01 05:51:25;;;;;;;10.02;4.88;;;1.60;99.90;;;;;;5010611;28;20042;-72
2022/04/01 05:53:52;;;;;;;9.10;3.97;;;1.60;99.90;;;;;;5008699;28;20057;-73
2022/04/01 05:56:18;;;;;;;9.02;4.75;;;1.60;99.90;;;;;;5016410;28;20041;-74
2022/04/01 05:58:44;;;;;;;9.23;4.20;;;1.60;99.90;;;;;;5008273;28;20022;-74
2022/04/01 06:01:18;;;;;;;9.88;4.65;;;1.60;99.90;;;;;;5015180;28;20195;-75
2022/04/01 06:04:10;;;;;;;10.30;3.97;;;1.60;99.90;;;;;;5015674;28;20036;-71
2022/04/01 06:06:44;;;;;;;10.18;3.97;;;1.60;99.90;;;;;;5008844;28;20107;-72
2022/04/01 06:09:35;;;;;;;8.30;3.60;;;1.60;99.90;;;;;;5006317;28;20102;-73
2022/04/01 06:12:29;;;;;;;7.35;3.15;;;1.60;99.90;;;;;;5013515;28;20056;-74
2022/04/01 06:15:01;;;;;;;8.32;3.95;;;1.60;99.90;;;;;;5008967;28;20038;-74
2022/04/01 06:17:58;;;;;;;6.88;3.35;;;1.60;99.90;;;;;;5009999;28;20680;-73
2022/04/01 06:20:26;;;;;;;8.27;3.53;;;1.60;99.90;;;;;;5010681;28;20030;-73
2022/04/01 06:23:07;;;;;;;7.93;3.78;;;1.60;99.90;;;;;;5015233;28;20044;-76
2022/04/01 06:25:38;;;;;;;;;;;1.70;99.90;;;;;;5013870;28;20043;-73
2022/04/01 06:28:39;;;;;;;8.43;3.58;;;1.70;99.90;;;;;;5009375;28;19913;-74
2022/04/01 06:31:06;;;;;;;7.15;3.22;;;1.70;99.90;;;;;;4998292;28;20091;-74
2022/04/01 06:34:04;;;;;;;7.22;3.17;;;1.70;99.90;;;;;;5010985;28;20042;-73
2022/04/01 06:37:00;;;;;;;8.93;3.38;;;1.70;99.90;;;;;;5012175;28;20030;-74
2022/04/01 06:39:46;;;;;;;5.88;2.90;;;1.70;99.90;;;;;;5012779;28;20060;-74
2022/04/01 06:42:22;;;;;;;7.90;3.40;;;1.70;99.90;;;;;;5008672;28;20037;-76
2022/04/01 06:44:49;;;;;;;7.47;3.42;;;1.70;99.90;;;;;;5002317;28;20034;-75
2022/04/01 06:47:23;;;;;;;7.80;3.55;;;1.70;99.90;;;;;;5009102;28;20034;-75
2022/04/01 06:49:50;;;;;;;8.55;3.97;;;1.70;99.90;;;;;;5006488;28;20026;-71
2022/04/01 06:52:17;;;;;;;7.60;3.38;;;1.80;99.90;;;;;;5006798;28;20128;-74
2022/04/01 06:54:43;;;;;;;7.15;3.45;;;1.80;99.90;;;;;;5001939;28;20049;-75
2022/04/01 06:57:10;;;;;;;7.53;3.42;;;1.80;99.90;;;;;;5008885;28;20026;-73
2022/04/01 06:59:35;;;;;;;8.75;4.35;;;1.80;99.90;;;;;;5010325;28;20044;-72
2022/04/01 07:02:05;;;;;;;7.07;3.45;;;1.80;99.90;;;;;;5008643;28;20030;-71
2022/04/01 07:04:35;;;;;;;8.52;3.95;;;1.80;99.90;;;;;;5031344;28;20030;-74
2022/04/01 07:07:05;;;;;;;;;;;1.70;99.90;;;;;;5007155;28;20041;-72
2022/04/01 07:09:31;;;;;;;8.57;3.83;;;1.80;99.90;;;;;;5007761;28;19913;-72
2022/04/01 07:11:59;;;;;;;10.35;4.25;;;1.80;99.90;;;;;;5006931;28;20376;-72
2022/04/01 07:14:27;;;;;;;9.32;4.05;;;1.80;99.90;;;;;;5008450;28;20042;-72
2022/04/01 07:16:54;;;;;;;10.35;4.20;;;1.80;99.90;;;;;;5006647;28;20200;-75
2022/04/01 07:19:20;;;;;;;9.15;4.00;;;1.80;99.90;;;;;;5008327;28;20029;-77
2022/04/01 07:21:45;;;;;;;8.85;4.32;;;1.80;99.90;;;;;;5008377;28;20038;-74
2022/04/01 07:24:12;;;;;;;9.57;3.97;;;1.80;99.90;;;;;;5007367;28;20511;-74
2022/04/01 07:26:38;;;;;;;8.88;3.90;;;1.80;99.90;;;;;;5008187;28;20431;-76
2022/04/01 07:29:04;;;;;;;9.88;4.10;;;1.80;99.90;;;;;;5006374;28;20105;-78
2022/04/01 07:34:21;;;;;;;8.30;3.80;;;1.90;99.90;;;;;;5008323;28;20028;-74
2022/04/01 07:36:47;;;;;;;9.82;4.47;;;1.90;99.90;;;;;;5004132;28;20021;-72
2022/04/01 07:39:15;;;;;;;9.27;4.07;;;2.00;99.90;;;;;;5007924;28;20018;-72
2022/04/01 07:41:41;;;;;;;8.95;4.40;;;1.90;99.90;;;;;;5009451;28;20030;-72
2022/04/01 07:44:07;;;;;;;9.80;4.30;;;2.00;99.90;;;;;;5007394;28;20037;-71
2022/04/01 07:46:35;;;;;;;8.27;3.97;;;2.10;99.90;;;;;;5008085;28;20484;-72
2022/04/01 07:49:03;;;;;;;13.07;4.32;;;2.10;99.90;;;;;;5004873;28;20030;-74
2022/04/01 07:51:31;;;;;;;8.73;4.05;;;2.10;99.90;;;;;;5007543;28;20029;-74
2022/04/01 07:53:59;;;;;;;11.48;4.50;;;2.10;99.90;;;;;;5004283;28;20038;-79
2022/04/01 07:56:31;;;;;;;8.73;3.92;;;2.20;99.90;;;;;;5010115;28;20464;-73
2022/04/01 07:58:59;;;;;;;9.60;4.80;;;2.20;99.90;;;;;;5006317;28;20080;-76
2022/04/01 08:01:31;;;;;;;10.05;4.45;;;2.20;99.90;;;;;;5006844;28;20472;-73
2022/04/01 08:04:04;;;;;;;10.70;3.90;;;2.20;99.90;;;;;;5006973;28;20030;-74
2022/04/01 08:06:41;;;;;;;9.45;4.03;;;2.20;99.90;;;;;;5006667;28;20053;-74
2022/04/01 08:09:09;;;;;;;8.02;3.92;;;2.30;99.90;;;;;;5005513;28;20473;-73
2022/04/01 08:11:40;;;;;;;8.35;4.05;;;2.30;99.90;;;;;;5007378;28;20085;-72
2022/04/01 08:14:12;;;;;;;9.38;4.28;;;2.30;99.90;;;;;;5006982;28;20084;-73
2022/04/01 08:16:42;;;;;;;9.65;4.07;;;2.30;99.90;;;;;;5006697;28;20022;-71
2022/04/01 08:19:14;;;;;;;8.10;3.75;;;2.30;99.90;;;;;;5004912;28;20088;-71
2022/04/01 08:21:45;;;;;;;8.15;3.70;;;2.30;99.90;;;;;;5006637;28;20038;-74
2022/04/01 08:24:14;;;;;;;7.40;3.40;;;2.40;99.90;;;;;;5006293;28;20034;-73
2022/04/01 08:26:45;;;;;;;6.65;3.05;;;2.40;99.90;;;;;;5006500;28;20030;-73
2022/04/01 08:29:11;;;;;;;7.63;3.55;;;2.40;99.90;;;;;;5007376;28;20053;-74
2022/04/01 08:31:39;;;;;;;7.05;3.42;;;2.40;99.90;;;;;;5007081;28;20133;-73
2022/04/01 08:34:11;;;;;;;6.20;3.08;;;2.30;99.90;;;;;;5006404;28;20030;-73
2022/04/01 08:36:37;;;;;;;6.43;3.00;;;2.30;99.90;;;;;;5006590;28;20052;-74
2022/04/01 08:39:06;;;;;;;6.25;3.03;;;2.30;99.90;;;;;;5005909;28;20052;-71
2022/04/01 08:41:34;;;;;;;7.53;3.17;;;2.30;99.90;;;;;;5005124;28;20088;-73
2022/04/01 08:44:09;;;;;;;6.43;3.13;;;2.30;99.90;;;;;;5030184;28;20123;-73
2022/04/01 08:46:38;;;;;;;7.63;3.30;;;2.20;99.90;;;;;;5006585;28;20026;-72
2022/04/01 08:49:06;;;;;;;5.32;3.00;;;2.20;99.90;;;;;;5005168;28;20109;-71
2022/04/01 08:51:39;;;;;;;6.18;2.88;;;2.20;99.90;;;;;;5033568;28;20064;-74
2022/04/01 08:54:07;;;;;;;6.35;3.20;;;2.20;99.90;;;;;;5006087;28;20030;-71
2022/04/01 08:56:32;;;;;;;7.28;3.00;;;2.20;99.90;;;;;;5004545;28;20037;-72
2022/04/01 08:59:00;;;;;;;7.07;2.95;;;2.20;99.90;;;;;;5004967;28;20034;-72
2022/04/01 09:01:40;;;;;;;5.97;2.85;;;2.20;99.90;;;;;;5005307;28;20152;-73
2022/04/01 09:04:21;;;;;;;6.32;3.10;;;2.30;99.90;;;;;;5005257;28;22015;-73
2022/04/01 09:06:52;;;;;;;6.97;3.20;;;2.30;99.90;;;;;;5005210;28;20034;-70
2022/04/01 09:09:29;;;;;;;6.22;3.20;;;2.20;99.90;;;;;;5006011;28;20030;-72
2022/04/01 09:12:22;;;;;;;7.03;3.13;;;2.20;99.90;;;;;;5005950;28;20030;-69
2022/04/01 09:14:54;;;;;;;6.53;3.00;;;2.10;99.90;;;;;;5010625;28;20056;-71
2022/04/01 09:17:23;;;;;;;7.10;3.00;;;2.10;99.90;;;;;;5008918;28;20022;-69
2022/04/01 09:20:09;;;;;;;8.82;3.03;;;2.20;99.90;;;;;;5010047;28;20026;-71
2022/04/01 09:22:42;;;;;;;7.80;3.05;;;2.10;99.90;;;;;;5009397;28;20081;-70
2022/04/01 09:25:13;;;;;;;5.45;2.67;;;2.10;99.90;;;;;;5007603;28;20152;-74
2022/04/01 09:27:40;;;;;;;;;;;2.00;99.90;;;;;;5011422;28;20033;-73
2022/04/01 09:30:11;;;;;;;4.97;2.75;;;2.10;99.90;;;;;;5009785;28;20029;-71
2022/04/01 09:32:39;;;;;;;6.78;3.17;;;2.10;99.90;;;;;;5010032;28;20046;-71
2022/04/01 09:35:06;;;;;;;7.60;3.10;;;2.20;99.90;;;;;;5010685;28;20519;-71
2022/04/01 09:37:46;;;;;;;6.00;2.75;;;2.20;99.90;;;;;;5010836;28;20057;-72
2022/04/01 09:40:14;;;;;;;6.35;3.15;;;2.30;99.90;;;;;;5008139;28;20499;-67
2022/04/01 09:43:00;;;;;;;6.13;2.92;;;2.30;99.90;;;;;;5011327;28;20033;-70
2022/04/01 09:45:28;;;;;;;4.20;2.50;;;2.20;99.90;;;;;;5010292;28;20065;-71
2022/04/01 09:48:06;;;;;;;6.38;2.95;;;2.20;99.90;;;;;;5012096;28;20026;-72
2022/04/01 09:50:38;;;;;;;6.78;2.83;;;2.20;99.90;;;;;;5010393;28;20384;-72
2022/04/01 09:53:16;;;;;;;5.75;2.85;;;2.20;99.90;;;;;;5010229;28;20104;-73
2022/04/01 09:55:43;;;;;;;6.43;2.85;;;2.30;99.90;;;;;;5010846;28;20037;-72
2022/04/01 09:58:09;;;;;;;7.55;3.22;;;2.20;99.90;;;;;;5009195;28;20041;-70
2022/04/01 10:00:37;;;;;;;6.63;3.10;;;2.20;99.90;;;;;;5011715;28;20034;-72
2022/04/01 10:03:06;;;;;;;7.20;3.40;;;2.20;99.90;;;;;;5010647;28;20049;-76
2022/04/01 10:05:36;;;;;;;6.22;2.83;;;2.20;99.90;;;;;;5010032;28;20580;-69
2022/04/01 10:08:05;;;;;;;4.60;2.15;;;2.20;99.90;;;;;;5009987;28;20087;-74
2022/04/01 10:10:31;;;;;;;6.30;3.05;;;2.30;99.90;;;;;;5003355;28;20030;-71
2022/04/01 10:13:09;;;;;;;5.65;3.10;;;2.30;99.90;;;;;;5011049;28;20473;-71
2022/04/01 10:15:36;;;;;;;5.57;2.88;;;2.30;99.90;;;;;;5010914;28;20053;-73
2022/04/01 10:18:03;;;;;;;4.85;2.80;;;2.20;99.90;;;;;;5008995;28;20022;-76
2022/04/01 10:20:34;;;;;;;5.32;2.70;;;2.30;99.90;;;;;;5010486;28;20113;-73
2022/04/01 10:23:08;;;;;;;6.68;3.15;;;2.20;99.90;;;;;;5009695;28;20034;-72
2022/04/01 10:25:46;;;;;;;5.68;2.83;;;2.30;99.90;;;;;;5006521;28;20038;-74
2022/04/01 10:28:14;;;;;;;6.22;2.70;;;2.30;99.90;;;;;;5006463;28;20540;-73
2022/04/01 10:30:40;;;;;;;5.72;2.80;;;2.40;99.90;;;;;;5016273;28;20349;-67
2022/04/01 10:33:09;;;;;;;5.20;2.97;;;2.30;99.90;;;;;;5017076;28;20034;-69
2022/04/01 10:35:38;;;;;;;5.22;2.80;;;2.30;99.90;;;;;;5023788;28;20037;-67
2022/04/01 10:38:06;;;;;;;5.55;2.83;;;2.40;99.90;;;;;;5014875;28;20037;-70
2022/04/01 10:40:34;;;;;;;6.07;2.53;;;2.40;99.90;;;;;;5009764;28;20033;-67
2022/04/01 10:43:16;;;;;;;5.20;2.50;;;2.50;99.90;;;;;;5010845;28;20026;-67
2022/04/01 10:46:19;;;;;;;6.72;3.00;;;2.60;99.90;;;;;;5002616;28;20030;-67
2022/04/01 10:52:05;;;;;;;5.53;2.67;;;2.40;99.90;;;;;;5014631;28;20398;-67
2022/04/01 10:54:31;;;;;;;5.82;2.60;;;2.40;99.90;;;;;;5008062;28;20038;-67
2022/04/01 10:57:08;;;;;;;5.38;2.67;;;2.50;99.90;;;;;;5008076;28;20612;-66
2022/04/01 10:59:49;;;;;;;6.40;2.67;;;2.50;99.90;;;;;;5005537;28;20112;-65
2022/04/01 11:02:22;;;;;;;5.88;2.80;;;2.60;99.90;;;;;;5007852;28;20524;-66
2022/04/01 11:04:51;;;;;;;5.93;2.72;;;2.50;99.90;;;;;;5006295;28;20100;-67
2022/04/01 11:07:25;;;;;;;5.43;2.88;;;2.50;99.90;;;;;;5007503;28;20719;-66
2022/04/01 11:10:01;;;;;;;6.35;2.60;;;2.50;99.90;;;;;;5004732;28;20053;-67
2022/04/01 11:12:34;;;;;;;6.13;2.60;;;2.50;99.90;;;;;;5005143;28;20113;-67
2022/04/01 11:15:16;;;;;;;4.97;2.67;;;2.60;99.90;;;;;;5006237;28;20088;-66
2022/04/01 11:17:49;;;;;;;5.28;2.67;;;2.60;99.90;;;;;;5008354;28;20034;-66
2022/04/01 11:21:03;;;;;;;4.53;2.15;;;2.60;99.90;;;;;;5007046;28;20026;-65
2022/04/01 11:23:13;;;;;;;4.80;2.20;;;2.50;99.90;;;;;;5002263;28;20034;-67
2022/04/01 11:25:44;;;;;;;4.07;2.55;;;2.60;99.90;;;;;;5008267;28;20048;-66
2022/04/01 11:28:15;;;;;;;5.45;2.53;;;2.60;99.90;;;;;;5006221;28;20388;-67
2022/04/01 11:30:45;;;;;;;5.57;2.65;;;2.60;99.90;;;;;;5005018;28;20388;-67
2022/04/01 11:33:24;;;;;;;5.53;2.90;;;2.60;99.90;;;;;;5004281;28;20120;-66
2022/04/01 11:35:54;;;;;;;5.50;2.53;;;2.60;99.90;;;;;;5008393;28;20109;-66
2022/04/01 11:38:24;;;;;;;5.53;2.63;;;2.60;99.90;;;;;;5008707;28;20030;-66
2022/04/01 11:41:00;;;;;;;5.72;2.75;;;2.60;99.90;;;;;;5008230;28;20030;-66
2022/04/01 11:43:30;;;;;;;6.13;3.15;;;2.60;99.90;;;;;;5007236;28;20033;-68
2022/04/01 11:46:06;;;;;;;6.07;3.20;;;2.60;99.90;;;;;;5002679;28;20033;-67
2022/04/01 11:48:45;;;;;;;5.22;2.80;;;2.70;99.90;;;;;;5008504;28;20029;-67
2022/04/01 11:51:18;;;;;;;5.80;2.45;;;2.70;99.90;;;;;;5007285;28;20030;-67
2022/04/01 11:53:53;;;;;;;6.47;3.22;;;2.80;99.90;;;;;;5008303;28;20030;-68
2022/04/01 11:56:28;;;;;;;6.32;2.88;;;2.70;99.90;;;;;;5006758;28;20030;-68
2022/04/01 11:59:07;;;;;;;5.13;2.63;;;2.70;99.90;;;;;;5007877;28;20061;-69
2022/04/01 12:01:55;;;;;;;5.30;2.90;;;2.70;99.90;;;;;;5006782;28;20559;-68
2022/04/01 12:04:32;;;;;;;7.30;3.88;;;2.70;99.90;;;;;;5006642;28;20073;-67
2022/04/01 12:09:58;;;;;;;5.57;3.33;;;2.80;99.90;;;;;;5004464;28;20037;-69
2022/04/01 12:12:26;;;;;;;8.18;3.55;;;2.80;99.90;;;;;;5004485;28;20480;-69
2022/04/01 12:15:00;;;;;;;5.82;3.08;;;2.70;99.90;;;;;;5006128;28;20057;-68
2022/04/01 12:17:28;;;;;;;5.05;3.20;;;2.80;99.90;;;;;;5005067;28;20052;-67
2022/04/01 12:20:22;;;;;;;9.52;4.70;;;2.80;99.90;;;;;;5003673;28;20038;-69
2022/04/01 12:22:51;;;;;;;9.85;4.72;;;2.80;99.90;;;;;;5008317;28;20147;-69
2022/04/01 12:25:17;;;;;;;8.38;4.50;;;2.80;99.90;;;;;;5007836;28;20049;-64
2022/04/01 12:27:57;;;;;;;9.60;4.93;;;2.90;99.90;;;;;;5009320;28;20053;-73
2022/04/01 12:30:33;;;;;;;10.48;5.65;;;2.90;99.90;;;;;;5000946;28;20121;-64
2022/04/01 12:33:15;;;;;;;9.23;4.75;;;3.00;99.90;;;;;;5006241;28;20084;-64
2022/04/01 12:35:58;;;;;;;7.95;4.22;;;2.80;99.90;;;;;;5009146;28;20104;-64
2022/04/01 12:38:32;;;;;;;15.27;7.45;;;2.90;99.90;;;;;;5007814;28;20030;-64
2022/04/01 12:41:03;;;;;;;13.07;6.40;;;2.90;99.90;;;;;;5007107;28;20033;-64
2022/04/01 12:43:43;;;;;;;40.72;22.58;;;2.90;99.90;;;;;;5004592;28;20127;-64
2022/04/01 12:46:29;;;;;;;16.08;7.68;;;3.10;99.90;;;;;;5013300;28;20529;-64
2022/04/01 12:49:00;;;;;;;23.63;12.25;;;3.10;99.90;;;;;;5006451;28;20507;-65
2022/04/01 12:51:27;;;;;;;32.85;16.38;;;3.20;99.90;;;;;;5006605;28;20030;-64
2022/04/01 12:54:03;;;;;;;42.47;19.88;;;3.20;99.90;;;;;;5004712;28;20054;-68
2022/04/01 12:56:35;;;;;;;14.85;6.82;;;3.10;99.90;;;;;;4999685;28;20038;-63
2022/04/01 12:59:09;;;;;;;16.00;6.13;;;3.10;99.90;;;;;;5008226;28;20021;-64
2022/04/01 13:01:37;;;;;;;29.38;13.43;;;3.20;99.90;;;;;;5005780;28;20040;-64
2022/04/01 13:04:05;;;;;;;31.65;16.25;;;3.20;99.90;;;;;;5010751;28;20034;-65
2022/04/01 13:06:31;;;;;;;16.02;7.88;;;3.20;99.90;;;;;;5006954;28;20137;-64
2022/04/01 13:09:06;;;;;;;48.63;22.70;;;3.30;99.90;;;;;;5006153;28;20435;-64
2022/04/01 13:11:44;;;;;;;17.05;8.23;;;3.30;99.90;;;;;;5000546;28;20262;-64
2022/04/01 13:14:22;;;;;;;13.77;6.68;;;3.20;99.90;;;;;;5008545;28;20377;-64
2022/04/01 13:16:49;;;;;;;11.38;6.03;;;3.20;99.90;;;;;;5008023;28;20046;-64
2022/04/01 13:19:30;;;;;;;13.23;6.55;;;3.20;99.90;;;;;;5007967;28;20026;-63
2022/04/01 13:21:59;;;;;;;;;;;3.20;99.90;;;;;;5009098;28;20030;-64
2022/04/01 13:24:38;;;;;;;13.40;6.32;;;3.30;99.90;;;;;;5006900;28;19909;-64
2022/04/01 13:27:06;;;;;;;15.38;7.55;;;3.30;99.90;;;;;;5008606;28;20026;-64
2022/04/01 13:29:33;;;;;;;12.82;6.60;;;3.30;99.90;;;;;;5007207;28;20034;-63
2022/04/01 13:31:58;;;;;;;14.25;6.95;;;3.20;99.90;;;;;;5007814;28;20037;-64